sensor_id;sensor_type;location;lat;lon;timestamp;temperature;humidity
44111;DHT22;29774;52.664;5.074;2023-08-08T00:01:00;17.30;75.00
44111;DHT22;29774;52.664;5.074;2023-08-08T00:03:26;17.30;74.70
44111;DHT22;29774;52.664;5.074;2023-08-08T00:05:52;17.30;74.60
44111;DHT22;29774;52.664;5.074;2023-08-08T00:08:18;17.20;74.90
44111;DHT22;29774;52.664;5.074;2023-08-08T00:10:43;17.20;75.20
44111;DHT22;29774;52.664;5.074;2023-08-08T00:13:09;17.20;74.80
44111;DHT22;29774;52.664;5.074;2023-08-08T00:15:34;17.20;75.20
44111;DHT22;29774;52.664;5.074;2023-08-08T00:18:00;17.20;75.30
44111;DHT22;29774;52.664;5.074;2023-08-08T00:20:26;17.20;75.10
44111;DHT22;29774;52.664;5.074;2023-08-08T00:22:52;17.20;75.00
44111;DHT22;29774;52.664;5.074;2023-08-08T00:25:17;17.30;74.90
44111;DHT22;29774;52.664;5.074;2023-08-08T00:27:43;17.30;74.80
44111;DHT22;29774;52.664;5.074;2023-08-08T00:30:11;17.40;74.50
44111;DHT22;29774;52.664;5.074;2023-08-08T00:32:37;17.70;73.70
44111;DHT22;29774;52.664;5.074;2023-08-08T00:35:02;17.60;73.70
44111;DHT22;29774;52.664;5.074;2023-08-08T00:37:28;17.60;73.60
44111;DHT22;29774;52.664;5.074;2023-08-08T00:39:54;17.50;73.80
44111;DHT22;29774;52.664;5.074;2023-08-08T00:42:19;17.40;74.30
44111;DHT22;29774;52.664;5.074;2023-08-08T00:44:45;17.50;73.90
44111;DHT22;29774;52.664;5.074;2023-08-08T00:47:11;17.70;73.40
44111;DHT22;29774;52.664;5.074;2023-08-08T00:49:37;17.70;73.40
44111;DHT22;29774;52.664;5.074;2023-08-08T00:52:03;17.80;73.40
44111;DHT22;29774;52.664;5.074;2023-08-08T00:54:29;18.10;72.50
44111;DHT22;29774;52.664;5.074;2023-08-08T00:56:55;18.20;72.10
44111;DHT22;29774;52.664;5.074;2023-08-08T00:59:21;17.90;72.40
44111;DHT22;29774;52.664;5.074;2023-08-08T01:01:48;18.10;72.20
44111;DHT22;29774;52.664;5.074;2023-08-08T01:04:14;18.20;72.10
44111;DHT22;29774;52.664;5.074;2023-08-08T01:06:54;18.50;71.30
44111;DHT22;29774;52.664;5.074;2023-08-08T01:11:55;18.10;71.60
44111;DHT22;29774;52.664;5.074;2023-08-08T01:14:21;18.20;71.60
44111;DHT22;29774;52.664;5.074;2023-08-08T01:16:50;18.30;71.00
44111;DHT22;29774;52.664;5.074;2023-08-08T01:19:25;18.30;71.00
44111;DHT22;29774;52.664;5.074;2023-08-08T01:21:53;18.20;71.10
44111;DHT22;29774;52.664;5.074;2023-08-08T01:24:24;18.10;71.50
44111;DHT22;29774;52.664;5.074;2023-08-08T01:26:53;18.00;72.20
44111;DHT22;29774;52.664;5.074;2023-08-08T01:29:19;18.10;71.70
44111;DHT22;29774;52.664;5.074;2023-08-08T01:31:45;18.00;72.30
44111;DHT22;29774;52.664;5.074;2023-08-08T01:34:10;18.10;71.80
44111;DHT22;29774;52.664;5.074;2023-08-08T01:37:06;18.00;71.70
44111;DHT22;29774;52.664;5.074;2023-08-08T01:39:34;17.90;72.30
44111;DHT22;29774;52.664;5.074;2023-08-08T01:42:00;17.80;72.30
44111;DHT22;29774;52.664;5.074;2023-08-08T01:44:27;17.70;72.70
44111;DHT22;29774;52.664;5.074;2023-08-08T01:46:54;17.70;73.00
44111;DHT22;29774;52.664;5.074;2023-08-08T01:49:20;17.60;73.20
44111;DHT22;29774;52.664;5.074;2023-08-08T01:51:46;17.70;73.10
44111;DHT22;29774;52.664;5.074;2023-08-08T01:54:12;17.70;72.60
44111;DHT22;29774;52.664;5.074;2023-08-08T01:56:37;17.70;72.70
44111;DHT22;29774;52.664;5.074;2023-08-08T01:59:03;17.70;72.70
44111;DHT22;29774;52.664;5.074;2023-08-08T02:01:28;17.70;72.80
44111;DHT22;29774;52.664;5.074;2023-08-08T02:03:54;17.70;73.00
44111;DHT22;29774;52.664;5.074;2023-08-08T02:06:19;17.80;72.40
44111;DHT22;29774;52.664;5.074;2023-08-08T02:08:45;18.10;71.50
44111;DHT22;29774;52.664;5.074;2023-08-08T02:11:11;18.30;71.20
44111;DHT22;29774;52.664;5.074;2023-08-08T02:13:37;18.20;71.00
44111;DHT22;29774;52.664;5.074;2023-08-08T02:16:02;18.00;71.60
44111;DHT22;29774;52.664;5.074;2023-08-08T02:18:28;18.10;71.70
44111;DHT22;29774;52.664;5.074;2023-08-08T02:20:54;18.20;71.20
44111;DHT22;29774;52.664;5.074;2023-08-08T02:23:19;18.00;71.60
44111;DHT22;29774;52.664;5.074;2023-08-08T02:25:45;17.90;71.90
44111;DHT22;29774;52.664;5.074;2023-08-08T02:28:11;17.90;71.60
44111;DHT22;29774;52.664;5.074;2023-08-08T02:30:37;17.70;72.40
44111;DHT22;29774;52.664;5.074;2023-08-08T02:33:02;17.60;72.70
44111;DHT22;29774;52.664;5.074;2023-08-08T02:35:28;17.70;72.80
44111;DHT22;29774;52.664;5.074;2023-08-08T02:37:53;17.80;72.60
44111;DHT22;29774;52.664;5.074;2023-08-08T02:40:19;17.70;72.50
44111;DHT22;29774;52.664;5.074;2023-08-08T02:42:45;18.00;71.40
44111;DHT22;29774;52.664;5.074;2023-08-08T02:45:10;17.80;72.30
44111;DHT22;29774;52.664;5.074;2023-08-08T02:47:36;17.80;72.40
44111;DHT22;29774;52.664;5.074;2023-08-08T02:50:01;17.60;72.60
44111;DHT22;29774;52.664;5.074;2023-08-08T02:52:27;17.70;72.70
44111;DHT22;29774;52.664;5.074;2023-08-08T02:54:53;18.00;71.80
44111;DHT22;29774;52.664;5.074;2023-08-08T02:57:18;17.70;72.20
44111;DHT22;29774;52.664;5.074;2023-08-08T02:59:44;17.80;72.20
44111;DHT22;29774;52.664;5.074;2023-08-08T03:02:09;17.90;72.00
44111;DHT22;29774;52.664;5.074;2023-08-08T03:04:35;17.70;72.50
44111;DHT22;29774;52.664;5.074;2023-08-08T03:07:00;18.00;72.20
44111;DHT22;29774;52.664;5.074;2023-08-08T03:09:29;17.90;72.10
44111;DHT22;29774;52.664;5.074;2023-08-08T03:11:55;17.70;72.50
44111;DHT22;29774;52.664;5.074;2023-08-08T03:14:21;17.70;72.60
44111;DHT22;29774;52.664;5.074;2023-08-08T03:16:46;18.20;71.50
44111;DHT22;29774;52.664;5.074;2023-08-08T03:19:12;18.30;70.80
44111;DHT22;29774;52.664;5.074;2023-08-08T03:21:37;18.10;71.40
44111;DHT22;29774;52.664;5.074;2023-08-08T03:24:03;18.20;70.80
44111;DHT22;29774;52.664;5.074;2023-08-08T03:26:29;18.50;70.50
44111;DHT22;29774;52.664;5.074;2023-08-08T03:28:54;18.60;69.90
44111;DHT22;29774;52.664;5.074;2023-08-08T03:31:21;18.80;69.10
44111;DHT22;29774;52.664;5.074;2023-08-08T03:33:46;18.50;69.90
44111;DHT22;29774;52.664;5.074;2023-08-08T03:36:13;18.70;69.60
44111;DHT22;29774;52.664;5.074;2023-08-08T03:38:39;18.40;69.50
44111;DHT22;29774;52.664;5.074;2023-08-08T03:41:05;18.70;69.40
44111;DHT22;29774;52.664;5.074;2023-08-08T03:43:31;18.70;69.50
44111;DHT22;29774;52.664;5.074;2023-08-08T03:45:56;18.90;68.70
44111;DHT22;29774;52.664;5.074;2023-08-08T03:48:22;18.50;69.40
44111;DHT22;29774;52.664;5.074;2023-08-08T03:50:48;18.30;70.50
44111;DHT22;29774;52.664;5.074;2023-08-08T03:53:14;18.20;70.60
44111;DHT22;29774;52.664;5.074;2023-08-08T03:55:39;18.40;70.70
44111;DHT22;29774;52.664;5.074;2023-08-08T03:58:05;18.30;70.90
44111;DHT22;29774;52.664;5.074;2023-08-08T04:00:33;18.40;70.00
44111;DHT22;29774;52.664;5.074;2023-08-08T04:02:59;18.30;70.40
44111;DHT22;29774;52.664;5.074;2023-08-08T04:05:25;18.20;70.60
44111;DHT22;29774;52.664;5.074;2023-08-08T04:07:50;18.20;70.60
44111;DHT22;29774;52.664;5.074;2023-08-08T04:10:16;18.00;71.50
44111;DHT22;29774;52.664;5.074;2023-08-08T04:12:42;18.00;71.70
44111;DHT22;29774;52.664;5.074;2023-08-08T04:15:08;18.00;71.00
44111;DHT22;29774;52.664;5.074;2023-08-08T04:17:34;17.70;71.30
44111;DHT22;29774;52.664;5.074;2023-08-08T04:20:00;17.70;72.10
44111;DHT22;29774;52.664;5.074;2023-08-08T04:22:25;18.30;70.70
44111;DHT22;29774;52.664;5.074;2023-08-08T04:24:51;18.60;69.60
44111;DHT22;29774;52.664;5.074;2023-08-08T04:27:17;18.40;70.20
44111;DHT22;29774;52.664;5.074;2023-08-08T04:29:42;18.30;69.80
44111;DHT22;29774;52.664;5.074;2023-08-08T04:32:08;18.20;70.40
44111;DHT22;29774;52.664;5.074;2023-08-08T04:34:33;18.00;70.50
44111;DHT22;29774;52.664;5.074;2023-08-08T04:36:59;18.20;71.10
44111;DHT22;29774;52.664;5.074;2023-08-08T04:39:24;18.10;70.90
44111;DHT22;29774;52.664;5.074;2023-08-08T04:41:50;17.80;70.90
44111;DHT22;29774;52.664;5.074;2023-08-08T04:44:16;17.60;72.20
44111;DHT22;29774;52.664;5.074;2023-08-08T04:46:41;17.60;72.20
44111;DHT22;29774;52.664;5.074;2023-08-08T04:49:07;17.60;72.20
44111;DHT22;29774;52.664;5.074;2023-08-08T04:51:33;17.90;72.00
44111;DHT22;29774;52.664;5.074;2023-08-08T04:53:58;17.80;71.20
44111;DHT22;29774;52.664;5.074;2023-08-08T04:56:24;17.70;71.60
44111;DHT22;29774;52.664;5.074;2023-08-08T04:58:49;18.20;70.60
44111;DHT22;29774;52.664;5.074;2023-08-08T05:01:15;18.30;70.00
44111;DHT22;29774;52.664;5.074;2023-08-08T05:03:43;18.50;69.70
44111;DHT22;29774;52.664;5.074;2023-08-08T05:06:08;18.30;70.30
44111;DHT22;29774;52.664;5.074;2023-08-08T05:08:34;18.60;69.70
44111;DHT22;29774;52.664;5.074;2023-08-08T05:11:00;18.80;68.80
44111;DHT22;29774;52.664;5.074;2023-08-08T05:13:25;18.50;69.10
44111;DHT22;29774;52.664;5.074;2023-08-08T05:15:51;18.30;70.10
44111;DHT22;29774;52.664;5.074;2023-08-08T05:18:17;18.20;70.30
44111;DHT22;29774;52.664;5.074;2023-08-08T05:20:42;18.30;70.30
44111;DHT22;29774;52.664;5.074;2023-08-08T05:23:08;18.50;69.40
44111;DHT22;29774;52.664;5.074;2023-08-08T05:25:34;18.70;69.00
44111;DHT22;29774;52.664;5.074;2023-08-08T05:27:59;18.80;68.50
44111;DHT22;29774;52.664;5.074;2023-08-08T05:30:25;18.80;68.40
44111;DHT22;29774;52.664;5.074;2023-08-08T05:32:50;18.90;68.50
44111;DHT22;29774;52.664;5.074;2023-08-08T05:35:16;18.80;68.20
44111;DHT22;29774;52.664;5.074;2023-08-08T05:37:42;18.80;68.60
44111;DHT22;29774;52.664;5.074;2023-08-08T05:40:07;18.90;68.00
44111;DHT22;29774;52.664;5.074;2023-08-08T05:42:33;19.00;68.20
44111;DHT22;29774;52.664;5.074;2023-08-08T05:44:59;18.90;68.10
44111;DHT22;29774;52.664;5.074;2023-08-08T05:47:24;18.90;68.10
44111;DHT22;29774;52.664;5.074;2023-08-08T05:49:50;18.80;68.50
44111;DHT22;29774;52.664;5.074;2023-08-08T05:52:15;19.00;68.10
44111;DHT22;29774;52.664;5.074;2023-08-08T05:54:41;19.10;67.50
44111;DHT22;29774;52.664;5.074;2023-08-08T05:57:07;19.10;67.70
44111;DHT22;29774;52.664;5.074;2023-08-08T05:59:32;19.40;66.70
44111;DHT22;29774;52.664;5.074;2023-08-08T06:01:58;19.30;66.80
44111;DHT22;29774;52.664;5.074;2023-08-08T06:04:24;19.40;66.60
44111;DHT22;29774;52.664;5.074;2023-08-08T06:06:50;19.50;66.30
44111;DHT22;29774;52.664;5.074;2023-08-08T06:09:16;19.50;65.90
44111;DHT22;29774;52.664;5.074;2023-08-08T06:11:42;19.50;66.00
44111;DHT22;29774;52.664;5.074;2023-08-08T06:14:08;19.70;66.10
44111;DHT22;29774;52.664;5.074;2023-08-08T06:16:34;19.70;65.90
44111;DHT22;29774;52.664;5.074;2023-08-08T06:18:59;19.70;65.80
44111;DHT22;29774;52.664;5.074;2023-08-08T06:21:25;19.80;66.00
44111;DHT22;29774;52.664;5.074;2023-08-08T06:23:51;19.80;65.80
44111;DHT22;29774;52.664;5.074;2023-08-08T06:26:20;19.80;65.40
44111;DHT22;29774;52.664;5.074;2023-08-08T06:28:46;19.80;65.70
44111;DHT22;29774;52.664;5.074;2023-08-08T06:31:13;19.80;65.90
44111;DHT22;29774;52.664;5.074;2023-08-08T06:33:38;19.90;65.60
44111;DHT22;29774;52.664;5.074;2023-08-08T06:36:04;20.00;65.50
44111;DHT22;29774;52.664;5.074;2023-08-08T06:38:30;20.00;65.10
44111;DHT22;29774;52.664;5.074;2023-08-08T06:41:02;20.00;65.20
44111;DHT22;29774;52.664;5.074;2023-08-08T06:43:28;19.90;65.70
44111;DHT22;29774;52.664;5.074;2023-08-08T06:45:54;20.00;65.60
44111;DHT22;29774;52.664;5.074;2023-08-08T06:48:21;20.00;65.50
44111;DHT22;29774;52.664;5.074;2023-08-08T06:50:46;20.00;65.70
44111;DHT22;29774;52.664;5.074;2023-08-08T06:53:12;20.00;65.50
44111;DHT22;29774;52.664;5.074;2023-08-08T06:55:37;20.00;65.90
44111;DHT22;29774;52.664;5.074;2023-08-08T06:58:03;19.90;66.60
44111;DHT22;29774;52.664;5.074;2023-08-08T07:00:29;19.90;65.80
44111;DHT22;29774;52.664;5.074;2023-08-08T07:02:55;19.90;65.70
44111;DHT22;29774;52.664;5.074;2023-08-08T07:05:20;19.90;66.00
44111;DHT22;29774;52.664;5.074;2023-08-08T07:07:49;19.90;66.40
44111;DHT22;29774;52.664;5.074;2023-08-08T07:10:15;19.90;65.80
44111;DHT22;29774;52.664;5.074;2023-08-08T07:12:41;19.90;66.20
44111;DHT22;29774;52.664;5.074;2023-08-08T07:15:07;19.90;65.90
44111;DHT22;29774;52.664;5.074;2023-08-08T07:17:33;20.00;65.70
44111;DHT22;29774;52.664;5.074;2023-08-08T07:19:59;20.00;65.90
44111;DHT22;29774;52.664;5.074;2023-08-08T07:22:25;20.10;66.40
44111;DHT22;29774;52.664;5.074;2023-08-08T07:24:51;20.10;66.70
44111;DHT22;29774;52.664;5.074;2023-08-08T07:27:17;20.00;66.70
44111;DHT22;29774;52.664;5.074;2023-08-08T07:29:42;20.00;66.30
44111;DHT22;29774;52.664;5.074;2023-08-08T07:32:08;20.10;66.10
44111;DHT22;29774;52.664;5.074;2023-08-08T07:34:34;20.00;66.30
44111;DHT22;29774;52.664;5.074;2023-08-08T07:36:59;20.10;66.20
44111;DHT22;29774;52.664;5.074;2023-08-08T07:39:25;20.00;66.20
44111;DHT22;29774;52.664;5.074;2023-08-08T07:41:51;20.00;66.30
44111;DHT22;29774;52.664;5.074;2023-08-08T07:44:17;20.00;66.20
44111;DHT22;29774;52.664;5.074;2023-08-08T07:46:43;20.00;66.10
44111;DHT22;29774;52.664;5.074;2023-08-08T07:49:08;20.00;66.10
44111;DHT22;29774;52.664;5.074;2023-08-08T07:51:35;20.10;66.10
44111;DHT22;29774;52.664;5.074;2023-08-08T07:54:01;20.10;66.30
44111;DHT22;29774;52.664;5.074;2023-08-08T07:56:27;20.00;66.50
44111;DHT22;29774;52.664;5.074;2023-08-08T07:58:53;20.20;66.00
44111;DHT22;29774;52.664;5.074;2023-08-08T08:01:18;20.20;65.80
44111;DHT22;29774;52.664;5.074;2023-08-08T08:03:44;20.20;66.00
44111;DHT22;29774;52.664;5.074;2023-08-08T08:06:11;20.30;65.70
44111;DHT22;29774;52.664;5.074;2023-08-08T08:08:37;20.20;65.90
44111;DHT22;29774;52.664;5.074;2023-08-08T08:11:03;20.30;66.00
44111;DHT22;29774;52.664;5.074;2023-08-08T08:13:28;20.30;66.20
44111;DHT22;29774;52.664;5.074;2023-08-08T08:15:54;20.20;66.20
44111;DHT22;29774;52.664;5.074;2023-08-08T08:18:20;20.20;66.50
44111;DHT22;29774;52.664;5.074;2023-08-08T08:20:46;20.20;66.30
44111;DHT22;29774;52.664;5.074;2023-08-08T08:23:12;20.30;66.20
44111;DHT22;29774;52.664;5.074;2023-08-08T08:25:38;20.30;66.00
44111;DHT22;29774;52.664;5.074;2023-08-08T08:28:04;20.30;66.70
44111;DHT22;29774;52.664;5.074;2023-08-08T08:30:29;20.20;66.10
44111;DHT22;29774;52.664;5.074;2023-08-08T08:32:55;20.20;66.20
44111;DHT22;29774;52.664;5.074;2023-08-08T08:35:22;20.30;66.00
44111;DHT22;29774;52.664;5.074;2023-08-08T08:37:47;20.30;66.30
44111;DHT22;29774;52.664;5.074;2023-08-08T08:40:14;20.30;66.30
44111;DHT22;29774;52.664;5.074;2023-08-08T08:42:40;20.30;66.80
44111;DHT22;29774;52.664;5.074;2023-08-08T08:45:09;20.20;66.50
44111;DHT22;29774;52.664;5.074;2023-08-08T08:47:36;20.40;66.00
44111;DHT22;29774;52.664;5.074;2023-08-08T08:50:03;20.40;65.80
44111;DHT22;29774;52.664;5.074;2023-08-08T08:52:29;20.30;66.90
44111;DHT22;29774;52.664;5.074;2023-08-08T08:54:55;20.30;66.80
44111;DHT22;29774;52.664;5.074;2023-08-08T08:57:22;20.30;66.60
44111;DHT22;29774;52.664;5.074;2023-08-08T08:59:51;20.30;66.50
44111;DHT22;29774;52.664;5.074;2023-08-08T09:02:18;20.30;66.60
44111;DHT22;29774;52.664;5.074;2023-08-08T09:04:44;20.20;66.70
44111;DHT22;29774;52.664;5.074;2023-08-08T09:07:11;20.10;66.90
44111;DHT22;29774;52.664;5.074;2023-08-08T09:09:38;20.10;66.70
44111;DHT22;29774;52.664;5.074;2023-08-08T09:12:04;20.20;66.60
44111;DHT22;29774;52.664;5.074;2023-08-08T09:14:31;20.20;67.10
44111;DHT22;29774;52.664;5.074;2023-08-08T09:16:57;20.10;67.00
44111;DHT22;29774;52.664;5.074;2023-08-08T09:19:24;20.20;66.90
44111;DHT22;29774;52.664;5.074;2023-08-08T09:21:51;20.10;67.00
44111;DHT22;29774;52.664;5.074;2023-08-08T09:24:18;20.20;67.00
44111;DHT22;29774;52.664;5.074;2023-08-08T09:26:44;20.30;66.50
44111;DHT22;29774;52.664;5.074;2023-08-08T09:29:11;20.30;66.50
44111;DHT22;29774;52.664;5.074;2023-08-08T09:31:37;20.40;66.10
44111;DHT22;29774;52.664;5.074;2023-08-08T09:34:04;20.50;66.10
44111;DHT22;29774;52.664;5.074;2023-08-08T09:36:30;20.40;66.00
44111;DHT22;29774;52.664;5.074;2023-08-08T09:38:56;20.40;66.10
44111;DHT22;29774;52.664;5.074;2023-08-08T09:41:23;20.40;66.30
44111;DHT22;29774;52.664;5.074;2023-08-08T09:43:49;20.40;66.10
44111;DHT22;29774;52.664;5.074;2023-08-08T09:46:15;20.50;65.60
44111;DHT22;29774;52.664;5.074;2023-08-08T09:48:42;20.60;65.50
44111;DHT22;29774;52.664;5.074;2023-08-08T09:51:09;20.60;66.10
44111;DHT22;29774;52.664;5.074;2023-08-08T09:53:35;20.50;65.70
44111;DHT22;29774;52.664;5.074;2023-08-08T09:56:03;20.60;65.70
44111;DHT22;29774;52.664;5.074;2023-08-08T09:58:30;20.50;66.20
44111;DHT22;29774;52.664;5.074;2023-08-08T10:00:55;20.50;66.30
44111;DHT22;29774;52.664;5.074;2023-08-08T10:03:22;20.50;66.60
44111;DHT22;29774;52.664;5.074;2023-08-08T10:05:48;20.50;66.00
44111;DHT22;29774;52.664;5.074;2023-08-08T10:08:18;20.50;66.20
44111;DHT22;29774;52.664;5.074;2023-08-08T10:10:45;20.50;65.90
44111;DHT22;29774;52.664;5.074;2023-08-08T10:13:22;20.50;66.50
44111;DHT22;29774;52.664;5.074;2023-08-08T10:15:49;20.50;66.60
44111;DHT22;29774;52.664;5.074;2023-08-08T10:18:15;20.40;66.70
44111;DHT22;29774;52.664;5.074;2023-08-08T10:20:47;20.40;66.60
44111;DHT22;29774;52.664;5.074;2023-08-08T10:23:15;20.40;66.40
44111;DHT22;29774;52.664;5.074;2023-08-08T10:25:49;20.40;66.30
44111;DHT22;29774;52.664;5.074;2023-08-08T10:28:18;20.40;66.50
44111;DHT22;29774;52.664;5.074;2023-08-08T10:30:46;20.50;66.20
44111;DHT22;29774;52.664;5.074;2023-08-08T10:36:02;20.60;66.50
44111;DHT22;29774;52.664;5.074;2023-08-08T10:41:18;20.60;66.00
44111;DHT22;29774;52.664;5.074;2023-08-08T10:43:57;20.50;65.60
44111;DHT22;29774;52.664;5.074;2023-08-08T10:46:30;20.50;66.00
44111;DHT22;29774;52.664;5.074;2023-08-08T10:48:57;20.50;66.00
44111;DHT22;29774;52.664;5.074;2023-08-08T10:51:37;20.60;65.80
44111;DHT22;29774;52.664;5.074;2023-08-08T10:54:08;20.60;65.40
44111;DHT22;29774;52.664;5.074;2023-08-08T10:56:37;20.70;65.20
44111;DHT22;29774;52.664;5.074;2023-08-08T10:59:15;20.60;65.70
44111;DHT22;29774;52.664;5.074;2023-08-08T11:01:44;20.70;65.40
44111;DHT22;29774;52.664;5.074;2023-08-08T11:04:11;20.70;65.60
44111;DHT22;29774;52.664;5.074;2023-08-08T11:06:37;20.70;64.70
44111;DHT22;29774;52.664;5.074;2023-08-08T11:09:06;20.80;65.30
44111;DHT22;29774;52.664;5.074;2023-08-08T11:11:39;20.70;65.80
44111;DHT22;29774;52.664;5.074;2023-08-08T11:14:17;20.70;65.40
44111;DHT22;29774;52.664;5.074;2023-08-08T11:16:44;20.90;64.60
44111;DHT22;29774;52.664;5.074;2023-08-08T11:19:10;20.90;64.20
44111;DHT22;29774;52.664;5.074;2023-08-08T11:21:37;21.10;64.00
44111;DHT22;29774;52.664;5.074;2023-08-08T11:24:05;21.00;64.30
44111;DHT22;29774;52.664;5.074;2023-08-08T11:26:32;20.80;64.90
44111;DHT22;29774;52.664;5.074;2023-08-08T11:29:02;20.90;64.70
44111;DHT22;29774;52.664;5.074;2023-08-08T11:31:28;20.90;64.40
44111;DHT22;29774;52.664;5.074;2023-08-08T11:33:55;21.00;64.60
44111;DHT22;29774;52.664;5.074;2023-08-08T11:36:22;21.00;64.50
44111;DHT22;29774;52.664;5.074;2023-08-08T11:38:48;21.00;64.40
44111;DHT22;29774;52.664;5.074;2023-08-08T11:41:16;21.20;64.20
44111;DHT22;29774;52.664;5.074;2023-08-08T11:43:43;21.10;64.90
44111;DHT22;29774;52.664;5.074;2023-08-08T11:46:13;20.90;65.30
44111;DHT22;29774;52.664;5.074;2023-08-08T11:48:39;20.80;65.60
44111;DHT22;29774;52.664;5.074;2023-08-08T11:51:06;20.70;66.20
44111;DHT22;29774;52.664;5.074;2023-08-08T11:53:32;20.70;66.60
44111;DHT22;29774;52.664;5.074;2023-08-08T11:55:59;20.70;66.70
44111;DHT22;29774;52.664;5.074;2023-08-08T11:58:25;20.70;66.20
44111;DHT22;29774;52.664;5.074;2023-08-08T12:00:52;20.80;66.00
44111;DHT22;29774;52.664;5.074;2023-08-08T12:03:20;20.70;66.60
44111;DHT22;29774;52.664;5.074;2023-08-08T12:05:48;20.70;67.00
44111;DHT22;29774;52.664;5.074;2023-08-08T12:08:18;20.70;66.90
44111;DHT22;29774;52.664;5.074;2023-08-08T12:10:48;20.80;66.50
44111;DHT22;29774;52.664;5.074;2023-08-08T12:13:22;20.80;66.50
44111;DHT22;29774;52.664;5.074;2023-08-08T12:15:48;20.80;66.20
44111;DHT22;29774;52.664;5.074;2023-08-08T12:18:18;20.80;66.50
44111;DHT22;29774;52.664;5.074;2023-08-08T12:20:43;20.80;66.90
44111;DHT22;29774;52.664;5.074;2023-08-08T12:23:10;20.80;67.10
44111;DHT22;29774;52.664;5.074;2023-08-08T12:25:36;20.70;67.40
44111;DHT22;29774;52.664;5.074;2023-08-08T12:28:02;20.70;67.20
44111;DHT22;29774;52.664;5.074;2023-08-08T12:30:27;20.80;66.80
44111;DHT22;29774;52.664;5.074;2023-08-08T12:32:53;20.90;66.40
44111;DHT22;29774;52.664;5.074;2023-08-08T12:35:19;20.90;66.70
44111;DHT22;29774;52.664;5.074;2023-08-08T12:37:46;20.90;66.00
44111;DHT22;29774;52.664;5.074;2023-08-08T12:40:12;20.80;67.10
44111;DHT22;29774;52.664;5.074;2023-08-08T12:42:38;20.70;67.40
44111;DHT22;29774;52.664;5.074;2023-08-08T12:45:04;20.80;66.80
44111;DHT22;29774;52.664;5.074;2023-08-08T12:47:30;20.70;67.70
44111;DHT22;29774;52.664;5.074;2023-08-08T12:49:57;20.80;67.30
44111;DHT22;29774;52.664;5.074;2023-08-08T12:52:22;20.70;68.00
44111;DHT22;29774;52.664;5.074;2023-08-08T12:54:48;20.70;67.40
44111;DHT22;29774;52.664;5.074;2023-08-08T12:57:13;20.80;67.20
44111;DHT22;29774;52.664;5.074;2023-08-08T12:59:39;21.10;66.40
44111;DHT22;29774;52.664;5.074;2023-08-08T13:02:05;21.00;66.60
44111;DHT22;29774;52.664;5.074;2023-08-08T13:04:31;21.00;66.60
44111;DHT22;29774;52.664;5.074;2023-08-08T13:06:56;21.00;66.80
44111;DHT22;29774;52.664;5.074;2023-08-08T13:09:22;20.80;67.10
44111;DHT22;29774;52.664;5.074;2023-08-08T13:11:47;20.80;67.70
44111;DHT22;29774;52.664;5.074;2023-08-08T13:14:13;20.80;67.20
44111;DHT22;29774;52.664;5.074;2023-08-08T13:16:39;20.80;67.60
44111;DHT22;29774;52.664;5.074;2023-08-08T13:19:04;20.70;67.70
44111;DHT22;29774;52.664;5.074;2023-08-08T13:21:30;20.80;67.10
44111;DHT22;29774;52.664;5.074;2023-08-08T13:23:56;20.90;67.20
44111;DHT22;29774;52.664;5.074;2023-08-08T13:26:22;20.80;67.30
44111;DHT22;29774;52.664;5.074;2023-08-08T13:28:48;20.80;67.40
44111;DHT22;29774;52.664;5.074;2023-08-08T13:31:15;20.80;66.70
44111;DHT22;29774;52.664;5.074;2023-08-08T13:33:41;20.70;66.30
44111;DHT22;29774;52.664;5.074;2023-08-08T13:36:07;20.80;66.50
44111;DHT22;29774;52.664;5.074;2023-08-08T13:38:32;20.70;66.70
44111;DHT22;29774;52.664;5.074;2023-08-08T13:40:58;20.70;66.70
44111;DHT22;29774;52.664;5.074;2023-08-08T13:43:25;20.90;66.70
44111;DHT22;29774;52.664;5.074;2023-08-08T13:45:51;21.00;65.60
44111;DHT22;29774;52.664;5.074;2023-08-08T13:48:17;21.10;65.60
44111;DHT22;29774;52.664;5.074;2023-08-08T13:50:43;21.00;66.20
44111;DHT22;29774;52.664;5.074;2023-08-08T13:53:09;21.10;66.50
44111;DHT22;29774;52.664;5.074;2023-08-08T13:55:34;21.00;66.70
44111;DHT22;29774;52.664;5.074;2023-08-08T13:58:05;20.90;66.50
44111;DHT22;29774;52.664;5.074;2023-08-08T14:00:31;20.90;67.20
44111;DHT22;29774;52.664;5.074;2023-08-08T14:02:57;20.80;66.70
44111;DHT22;29774;52.664;5.074;2023-08-08T14:05:24;20.80;67.10
44111;DHT22;29774;52.664;5.074;2023-08-08T14:07:50;20.90;67.00
44111;DHT22;29774;52.664;5.074;2023-08-08T14:10:15;20.90;66.50
44111;DHT22;29774;52.664;5.074;2023-08-08T14:12:41;20.90;66.90
44111;DHT22;29774;52.664;5.074;2023-08-08T14:15:07;20.90;66.50
44111;DHT22;29774;52.664;5.074;2023-08-08T14:17:34;20.90;66.60
44111;DHT22;29774;52.664;5.074;2023-08-08T14:20:00;21.00;66.20
44111;DHT22;29774;52.664;5.074;2023-08-08T14:22:25;21.00;66.30
44111;DHT22;29774;52.664;5.074;2023-08-08T14:24:51;21.00;66.40
44111;DHT22;29774;52.664;5.074;2023-08-08T14:27:17;20.90;66.70
44111;DHT22;29774;52.664;5.074;2023-08-08T14:29:42;21.00;66.60
44111;DHT22;29774;52.664;5.074;2023-08-08T14:32:08;21.00;66.60
44111;DHT22;29774;52.664;5.074;2023-08-08T14:34:34;21.00;66.60
44111;DHT22;29774;52.664;5.074;2023-08-08T14:37:01;21.00;66.80
44111;DHT22;29774;52.664;5.074;2023-08-08T14:39:27;21.00;66.70
44111;DHT22;29774;52.664;5.074;2023-08-08T14:41:53;20.90;66.40
44111;DHT22;29774;52.664;5.074;2023-08-08T14:44:18;20.90;66.50
44111;DHT22;29774;52.664;5.074;2023-08-08T14:46:44;21.00;66.50
44111;DHT22;29774;52.664;5.074;2023-08-08T14:49:10;21.00;65.80
44111;DHT22;29774;52.664;5.074;2023-08-08T14:51:35;20.90;67.50
44111;DHT22;29774;52.664;5.074;2023-08-08T14:54:02;20.90;67.00
44111;DHT22;29774;52.664;5.074;2023-08-08T14:56:27;20.90;66.80
44111;DHT22;29774;52.664;5.074;2023-08-08T14:58:53;21.00;65.50
44111;DHT22;29774;52.664;5.074;2023-08-08T15:01:19;21.00;66.70
44111;DHT22;29774;52.664;5.074;2023-08-08T15:03:45;21.00;66.50
44111;DHT22;29774;52.664;5.074;2023-08-08T15:06:10;21.00;66.70
44111;DHT22;29774;52.664;5.074;2023-08-08T15:08:36;21.10;66.60
44111;DHT22;29774;52.664;5.074;2023-08-08T15:11:02;21.00;66.70
44111;DHT22;29774;52.664;5.074;2023-08-08T15:13:28;21.00;67.10
44111;DHT22;29774;52.664;5.074;2023-08-08T15:15:53;21.00;67.20
44111;DHT22;29774;52.664;5.074;2023-08-08T15:18:19;20.90;66.60
44111;DHT22;29774;52.664;5.074;2023-08-08T15:20:44;20.90;67.20
44111;DHT22;29774;52.664;5.074;2023-08-08T15:23:10;21.00;67.10
44111;DHT22;29774;52.664;5.074;2023-08-08T15:25:36;21.00;66.90
44111;DHT22;29774;52.664;5.074;2023-08-08T15:28:03;20.90;65.20
44111;DHT22;29774;52.664;5.074;2023-08-08T15:30:29;20.90;66.50
44111;DHT22;29774;52.664;5.074;2023-08-08T15:32:55;20.90;66.80